Time;durP1;ratioP1;P1;durP2;ratioP2;P2;SDS_P1;SDS_P2;PMS_P1;PMS_P2;Temp;Humidity;BMP_temperature;BMP_pressure;BME280_temperature;BME280_humidity;BME280_pressure;Samples;Min_cycle;Max_cycle;Signal;HPM_P1;HPM_P2
2022/07/08 00:01:23;;;;;;;;;;;15.70;1.00;;;;;;10495620;27;84008;-55
2022/07/08 00:06:24;;;;;;;;;;;15.60;1.00;;;;;;10495430;27;84830;-52
2022/07/08 00:11:24;;;;;;;;;;;15.70;1.00;;;;;;10495477;27;84964;-52
2022/07/08 00:16:25;;;;;;;;;;;15.70;1.00;;;;;;10495421;27;85112;-54
2022/07/08 00:21:25;;;;;;;;;;;15.50;1.00;;;;;;10495009;27;84154;-52
2022/07/08 00:26:26;;;;;;;;;;;15.50;1.00;;;;;;10495394;27;84278;-54
2022/07/08 00:31:27;;;;;;;;;;;15.50;1.00;;;;;;10495507;27;83974;-51
2022/07/08 00:36:27;;;;;;;;;;;15.50;1.00;;;;;;10476229;27;84410;-52
2022/07/08 00:41:28;;;;;;;;;;;15.50;1.00;;;;;;10495017;27;85233;-52
2022/07/08 00:46:29;;;;;;;;;;;15.60;1.00;;;;;;10493959;27;84202;-53
2022/07/08 00:51:29;;;;;;;;;;;15.60;1.00;;;;;;10494422;27;84992;-52
2022/07/08 00:56:30;;;;;;;;;;;15.60;1.00;;;;;;10494137;27;84113;-50
2022/07/08 01:01:30;;;;;;;;;;;15.60;1.00;;;;;;10493604;27;84095;-51
2022/07/08 01:06:31;;;;;;;;;;;15.60;1.00;;;;;;10493736;27;84113;-51
2022/07/08 01:11:32;;;;;;;;;;;15.60;1.00;;;;;;10493671;27;85015;-48
2022/07/08 01:16:32;;;;;;;;;;;15.60;1.00;;;;;;10493255;27;84715;-57
2022/07/08 01:21:33;;;;;;;;;;;15.60;1.00;;;;;;10493371;27;84029;-53
2022/07/08 01:26:33;;;;;;;;;;;15.60;1.00;;;;;;10492934;27;85079;-50
2022/07/08 01:31:34;;;;;;;;;;;15.50;13.20;;;;;;10492809;27;84688;-54
2022/07/08 01:36:34;;;;;;;;;;;15.50;84.20;;;;;;10474111;27;84091;-51
2022/07/08 01:41:35;;;;;;;;;;;15.50;1.00;;;;;;10493393;27;84290;-54
2022/07/08 01:46:35;;;;;;;;;;;15.50;75.70;;;;;;10492176;27;84873;-55
2022/07/08 01:51:36;;;;;;;;;;;15.50;80.00;;;;;;10493108;27;84763;-54
2022/07/08 01:56:36;;;;;;;;;;;15.40;99.90;;;;;;10493045;27;84162;-52
2022/07/08 02:01:37;;;;;;;;;;;15.40;99.90;;;;;;10493212;27;84330;-49
2022/07/08 02:06:37;;;;;;;;;;;15.40;99.90;;;;;;10494748;27;84482;-52
2022/07/08 02:16:57;;;;;;;;;;;15.30;99.90;;;;;;10503758;27;84691;-58
2022/07/08 02:21:58;;;;;;;;;;;15.30;99.90;;;;;;10511214;27;84140;-55
2022/07/08 02:26:58;;;;;;;;;;;15.40;99.90;;;;;;10484971;27;86134;-50
2022/07/08 02:31:59;;;;;;;;;;;15.40;99.90;;;;;;10501407;27;84198;-50
2022/07/08 02:37:00;;;;;;;;;;;15.30;99.90;;;;;;10480545;27;84343;-51
2022/07/08 02:42:00;;;;;;;;;;;15.40;99.90;;;;;;10499682;27;84847;-50
2022/07/08 02:47:01;;;;;;;;;;;15.30;99.90;;;;;;10497573;27;84112;-56
2022/07/08 02:52:01;;;;;;;;;;;15.30;99.90;;;;;;10496612;27;84931;-50
2022/07/08 02:57:02;;;;;;;;;;;15.30;99.90;;;;;;10495516;27;85416;-51
2022/07/08 03:02:03;;;;;;;;;;;15.30;99.90;;;;;;10488527;27;84174;-50
2022/07/08 03:07:03;;;;;;;;;;;15.30;99.90;;;;;;10496894;27;84891;-49
2022/07/08 03:12:04;;;;;;;;;;;15.30;99.90;;;;;;10497312;27;84778;-51
2022/07/08 03:17:04;;;;;;;;;;;15.30;99.90;;;;;;10474985;27;84809;-54
2022/07/08 03:22:05;;;;;;;;;;;15.20;99.90;;;;;;10496815;27;83994;-52
2022/07/08 03:27:06;;;;;;;;;;;15.20;99.90;;;;;;10496844;27;84133;-54
2022/07/08 03:32:06;;;;;;;;;;;15.10;99.90;;;;;;10496506;27;84017;-54
2022/07/08 03:37:07;;;;;;;;;;;15.10;99.90;;;;;;10496826;27;84816;-50
2022/07/08 03:42:07;;;;;;;;;;;15.10;99.90;;;;;;10490682;27;84894;-49
2022/07/08 03:47:08;;;;;;;;;;;15.10;99.90;;;;;;10493569;27;84957;-55
2022/07/08 03:52:09;;;;;;;;;;;15.20;99.90;;;;;;10480279;27;84225;-50
2022/07/08 03:57:09;;;;;;;;;;;15.20;99.90;;;;;;10472381;27;84835;-50
2022/07/08 04:02:10;;;;;;;;;;;15.10;99.90;;;;;;10506530;27;86414;-49
2022/07/08 04:07:10;;;;;;;;;;;15.10;99.90;;;;;;10513475;27;84947;-51
2022/07/08 04:12:11;;;;;;;;;;;15.10;1.00;;;;;;10515069;27;84502;-54
2022/07/08 04:17:11;;;;;;;;;;;15.10;1.00;;;;;;10508248;27;84089;-54
2022/07/08 04:22:12;;;;;;;;;;;15.10;1.00;;;;;;10515329;27;84189;-53
2022/07/08 04:27:12;;;;;;;;;;;15.10;1.00;;;;;;10480069;27;86065;-51
2022/07/08 04:32:13;;;;;;;;;;;15.10;1.00;;;;;;10514551;27;84094;-50
2022/07/08 04:37:13;;;;;;;;;;;15.20;1.00;;;;;;10496955;27;85082;-51
2022/07/08 04:42:14;;;;;;;;;;;15.10;1.00;;;;;;10509637;27;85392;-50
2022/07/08 04:47:15;;;;;;;;;;;15.20;1.00;;;;;;10472926;22;85654;-51
2022/07/08 04:52:15;;;;;;;;;;;15.20;1.00;;;;;;10491476;27;84966;-54
2022/07/08 04:57:16;;;;;;;;;;;15.30;1.00;;;;;;10463190;27;84153;-48
2022/07/08 05:02:16;;;;;;;;;;;15.40;1.00;;;;;;10446994;27;84860;-49
2022/07/08 05:07:17;;;;;;;;;;;15.50;1.00;;;;;;10449493;28;84874;-47
2022/07/08 05:12:17;;;;;;;;;;;15.50;1.00;;;;;;10448016;28;84946;-47
2022/07/08 05:17:18;;;;;;;;;;;15.60;1.00;;;;;;10448233;27;84316;-48
2022/07/08 05:22:18;;;;;;;;;;;15.60;1.00;;;;;;10447260;28;84265;-50
2022/07/08 05:27:20;;;;;;;;;;;15.80;99.90;;;;;;10446914;28;84852;-50
2022/07/08 05:32:21;;;;;;;;;;;15.90;99.90;;;;;;10447591;27;84722;-47
2022/07/08 05:37:22;;;;;;;;;;;15.90;99.90;;;;;;10448603;27;85518;-47
2022/07/08 05:42:22;;;;;;;;;;;16.00;99.90;;;;;;10448599;27;84868;-50
2022/07/08 05:47:23;;;;;;;;;;;16.00;99.90;;;;;;10450765;27;84581;-50
2022/07/08 05:52:23;;;;;;;;;;;16.10;99.90;;;;;;10456370;28;84254;-47
2022/07/08 05:57:24;;;;;;;;;;;16.00;99.90;;;;;;10454068;27;85972;-48
2022/07/08 06:02:25;;;;;;;;;;;16.10;99.90;;;;;;10455000;28;85200;-48
2022/07/08 06:07:25;;;;;;;;;;;16.20;99.90;;;;;;10455460;27;84124;-52
2022/07/08 06:12:26;;;;;;;;;;;16.30;99.90;;;;;;10456359;28;84957;-51
2022/07/08 06:17:27;;;;;;;;;;;16.40;99.90;;;;;;10455932;27;84210;-50
2022/07/08 06:22:28;;;;;;;;;;;16.60;1.60;;;;;;10455254;28;84351;-48
2022/07/08 06:27:28;;;;;;;;;;;16.60;1.00;;;;;;10455209;27;84112;-48
2022/07/08 06:32:29;;;;;;;;;;;16.60;1.00;;;;;;10455270;28;84143;-48
2022/07/08 06:37:29;;;;;;;;;;;16.70;1.00;;;;;;10454657;27;84906;-47
2022/07/08 06:42:30;;;;;;;;;;;16.70;1.00;;;;;;10454536;28;84144;-51
2022/07/08 06:47:31;;;;;;;;;;;16.80;1.00;;;;;;10452153;27;86765;-49
2022/07/08 06:52:32;;;;;;;;;;;16.90;1.00;;;;;;10453612;27;84811;-45
2022/07/08 06:57:33;;;;;;;;;;;17.20;1.00;;;;;;10453267;27;84941;-47
2022/07/08 07:02:34;;;;;;;;;;;17.50;99.90;;;;;;10453848;28;84138;-51
2022/07/08 07:07:34;;;;;;;;;;;17.30;99.90;;;;;;10454140;27;84222;-47
2022/07/08 07:12:35;;;;;;;;;;;17.30;99.90;;;;;;10453827;27;84173;-47
2022/07/08 07:17:38;;;;;;;;;;;17.50;1.00;;;;;;10453291;27;84843;-48
2022/07/08 07:22:39;;;;;;;;;;;17.90;1.00;;;;;;10451338;28;84993;-50
2022/07/08 07:27:40;;;;;;;;;;;18.10;99.90;;;;;;10453148;27;84885;-50
2022/07/08 07:32:41;;;;;;;;;;;18.30;1.00;;;;;;10453215;27;84037;-49
2022/07/08 07:37:41;;;;;;;;;;;18.00;99.90;;;;;;10452693;27;84302;-50
2022/07/08 07:42:42;;;;;;;;;;;17.90;1.00;;;;;;10450874;28;86937;-50
2022/07/08 07:47:42;;;;;;;;;;;18.30;1.00;;;;;;10451630;27;84849;-51
2022/07/08 07:52:43;;;;;;;;;;;19.20;1.00;;;;;;10452576;28;84020;-47
2022/07/08 07:57:45;;;;;;;;;;;20.40;99.90;;;;;;10450537;27;86065;-47
2022/07/08 08:02:46;;;;;;;;;;;19.90;1.00;;;;;;10451171;28;84918;-48
2022/07/08 08:07:47;;;;;;;;;;;19.40;1.00;;;;;;10451252;27;84848;-50
2022/07/08 08:12:48;;;;;;;;;;;19.50;1.00;;;;;;10450092;28;86067;-48
2022/07/08 08:17:49;;;;;;;;;;;20.50;1.00;;;;;;10449593;27;86348;-51
2022/07/08 08:22:49;;;;;;;;;;;20.60;1.00;;;;;;10450374;28;83930;-48
2022/07/08 08:27:50;;;;;;;;;;;20.70;99.90;;;;;;10451196;27;84003;-49
2022/07/08 08:32:50;;;;;;;;;;;20.90;99.90;;;;;;10451429;28;84190;-47
2022/07/08 08:37:51;;;;;;;;;;;21.20;1.00;;;;;;10450920;27;84914;-50
2022/07/08 08:42:52;;;;;;;;;;;21.50;1.00;;;;;;10450361;28;85808;-47
2022/07/08 08:47:53;;;;;;;;;;;22.00;99.90;;;;;;10450639;27;84276;-47
2022/07/08 08:52:54;;;;;;;;;;;22.20;1.00;;;;;;10450424;28;84433;-47
2022/07/08 08:57:58;;;;;;;;;;;22.10;99.90;;;;;;10449818;28;84842;-47
2022/07/08 09:02:59;;;;;;;;;;;22.00;99.90;;;;;;10449843;27;84195;-47
2022/07/08 09:08:00;;;;;;;;;;;22.10;1.00;;;;;;10465203;27;87103;-52
2022/07/08 09:13:03;;;;;;;;;;;22.40;1.00;;;;;;10450315;27;84015;-50
2022/07/08 09:18:05;;;;;;;;;;;22.40;1.00;;;;;;10454566;27;84559;-48
2022/07/08 09:23:13;;;;;;;;;;;22.10;1.00;;;;;;10458234;27;84130;-48
2022/07/08 09:28:27;;;;;;;;;;;22.20;1.00;;;;;;10458350;27;84338;-53
2022/07/08 09:33:28;;;;;;;;;;;22.60;1.00;;;;;;10458130;27;84168;-50
2022/07/08 09:38:30;;;;;;;;;;;22.40;1.00;;;;;;10456844;27;87005;-49
2022/07/08 09:43:41;;;;;;;;;;;22.40;1.00;;;;;;10458071;27;84076;-48
2022/07/08 09:48:42;;;;;;;;;;;22.70;1.00;;;;;;10457475;27;85174;-47
2022/07/08 09:53:43;;;;;;;;;;;22.70;1.00;;;;;;10457907;27;84239;-51
2022/07/08 09:58:45;;;;;;;;;;;22.00;1.00;;;;;;10455462;27;85701;-51
2022/07/08 10:03:46;;;;;;;;;;;22.00;1.00;;;;;;10457059;28;85299;-51
2022/07/08 10:08:47;;;;;;;;;;;22.20;1.00;;;;;;10457627;27;84139;-48
2022/07/08 10:13:47;;;;;;;;;;;23.60;1.00;;;;;;10457301;28;84493;-50
2022/07/08 10:18:51;;;;;;;;;;;23.20;1.00;;;;;;10456151;27;84750;-51
2022/07/08 10:23:52;;;;;;;;;;;22.20;1.00;;;;;;10456724;28;84118;-49
2022/07/08 10:29:00;;;;;;;;;;;22.50;1.00;;;;;;10453498;27;87144;-55
2022/07/08 10:34:01;;;;;;;;;;;23.10;1.00;;;;;;10456350;27;85035;-51
2022/07/08 10:39:03;;;;;;;;;;;23.00;1.00;;;;;;10456631;27;83941;-50
2022/07/08 10:44:05;;;;;;;;;;;22.60;1.00;;;;;;10456052;27;84306;-48
2022/07/08 10:49:10;;;;;;;;;;;22.40;99.90;;;;;;10497558;22;86449;-52
2022/07/08 10:54:23;;;;;;;;;;;22.40;1.00;;;;;;10484600;27;85045;-53
2022/07/08 10:59:27;;;;;;;;;;;22.30;1.00;;;;;;10500449;27;84383;-49
2022/07/08 11:04:34;;;;;;;;;;;22.30;1.00;;;;;;10499275;27;84409;-50
2022/07/08 11:09:35;;;;;;;;;;;22.10;99.90;;;;;;10500014;27;85109;-53
2022/07/08 11:14:36;;;;;;;;;;;21.70;1.00;;;;;;10501138;27;83979;-54
2022/07/08 11:19:39;;;;;;;;;;;21.90;99.90;;;;;;10502405;27;84158;-53
2022/07/08 11:24:41;;;;;;;;;;;22.60;99.90;;;;;;10502961;27;84922;-54
2022/07/08 11:29:49;;;;;;;;;;;22.80;1.00;;;;;;10498406;27;84192;-51
2022/07/08 11:34:49;;;;;;;;;;;23.80;7.20;;;;;;10497859;27;84953;-54
2022/07/08 11:39:50;;;;;;;;;;;23.90;1.00;;;;;;10497316;27;84399;-55
2022/07/08 11:44:51;;;;;;;;;;;25.20;99.90;;;;;;10478953;27;84963;-55
2022/07/08 11:49:51;;;;;;;;;;;25.60;1.00;;;;;;10497728;27;84124;-54
2022/07/08 11:54:53;;;;;;;;;;;24.80;1.00;;;;;;10484944;27;86800;-52
2022/07/08 11:59:53;;;;;;;;;;;24.30;1.00;;;;;;10508684;27;86427;-54
2022/07/08 12:04:54;;;;;;;;;;;23.70;1.00;;;;;;10499642;27;84124;-55
2022/07/08 12:09:56;;;;;;;;;;;23.40;99.90;;;;;;10502710;27;84949;-56
2022/07/08 12:15:08;;;;;;;;;;;23.40;99.90;;;;;;10490653;27;84849;-52
2022/07/08 12:20:09;;;;;;;;;;;23.60;1.00;;;;;;10481531;27;84075;-51
2022/07/08 12:25:10;;;;;;;;;;;23.60;99.90;;;;;;10497896;27;84779;-51
2022/07/08 12:30:11;;;;;;;;;;;23.60;1.00;;;;;;10498662;27;84400;-51
2022/07/08 12:35:12;;;;;;;;;;;23.60;1.00;;;;;;10479503;27;85001;-52
2022/07/08 12:40:19;;;;;;;;;;;24.50;99.90;;;;;;10496187;27;84771;-52
2022/07/08 12:45:19;;;;;;;;;;;24.70;1.00;;;;;;10494460;27;84301;-51
2022/07/08 12:50:23;;;;;;;;;;;24.00;99.90;;;;;;10494986;27;84970;-55
2022/07/08 12:55:24;;;;;;;;;;;23.60;1.00;;;;;;10476444;27;84127;-53
2022/07/08 13:00:24;;;;;;;;;;;23.30;1.00;;;;;;10476112;27;85075;-53
2022/07/08 13:05:25;;;;;;;;;;;23.10;1.00;;;;;;10496366;27;84155;-55
2022/07/08 13:10:25;;;;;;;;;;;23.10;99.90;;;;;;10495196;27;84968;-51
2022/07/08 13:15:26;;;;;;;;;;;22.90;1.00;;;;;;10494488;27;84971;-50
2022/07/08 13:20:26;;;;;;;;;;;23.10;1.00;;;;;;10493777;27;84058;-50
2022/07/08 13:25:27;;;;;;;;;;;22.90;1.00;;;;;;10493418;27;85126;-50
2022/07/08 13:30:28;;;;;;;;;;;22.80;99.90;;;;;;10493806;27;84913;-50
2022/07/08 13:35:28;;;;;;;;;;;23.30;28.50;;;;;;10493048;27;84069;-54
2022/07/08 13:40:29;;;;;;;;;;;23.80;99.90;;;;;;10493584;27;84523;-52
2022/07/08 13:45:29;;;;;;;;;;;24.50;1.00;;;;;;10492368;27;84653;-53
2022/07/08 13:50:30;;;;;;;;;;;24.80;1.00;;;;;;10493084;27;84166;-51
2022/07/08 13:55:31;;;;;;;;;;;25.80;99.90;;;;;;10493329;27;84215;-54
2022/07/08 14:00:31;;;;;;;;;;;26.00;1.00;;;;;;10488254;27;85127;-52
2022/07/08 14:05:32;;;;;;;;;;;25.80;1.00;;;;;;10472798;27;84328;-54
2022/07/08 14:10:33;;;;;;;;;;;25.50;1.00;;;;;;10498270;27;84123;-50
2022/07/08 14:15:33;;;;;;;;;;;25.10;1.30;;;;;;10477877;27;84286;-50
2022/07/08 14:20:34;;;;;;;;;;;24.80;99.90;;;;;;10497228;27;85228;-51
2022/07/08 14:25:35;;;;;;;;;;;24.60;99.90;;;;;;10499227;27;84792;-54
2022/07/08 14:30:35;;;;;;;;;;;24.90;99.90;;;;;;10499188;27;85003;-54
2022/07/08 14:35:36;;;;;;;;;;;25.10;99.90;;;;;;10498966;27;85020;-53
2022/07/08 14:40:37;;;;;;;;;;;25.20;99.90;;;;;;10498359;27;85263;-50
2022/07/08 14:45:38;;;;;;;;;;;25.00;99.90;;;;;;10498183;27;84715;-50
2022/07/08 14:50:38;;;;;;;;;;;24.60;99.90;;;;;;10487641;27;84253;-53
2022/07/08 14:55:39;;;;;;;;;;;24.20;1.00;;;;;;10495476;27;84247;-51
2022/07/08 15:00:40;;;;;;;;;;;24.30;1.00;;;;;;10495857;27;84162;-50
2022/07/08 15:05:40;;;;;;;;;;;24.60;1.00;;;;;;10472166;27;85386;-49
2022/07/08 15:10:41;;;;;;;;;;;24.20;1.00;;;;;;10486839;27;84349;-54
2022/07/08 15:15:42;;;;;;;;;;;23.90;1.00;;;;;;10495787;27;84848;-54
2022/07/08 15:20:42;;;;;;;;;;;23.80;1.00;;;;;;10496958;27;86703;-50
2022/07/08 15:25:43;;;;;;;;;;;23.70;1.00;;;;;;10496690;27;84879;-48
2022/07/08 15:30:44;;;;;;;;;;;23.80;68.80;;;;;;10496197;27;84272;-53
2022/07/08 15:35:44;;;;;;;;;;;24.00;1.00;;;;;;10496604;27;84924;-51
2022/07/08 15:40:45;;;;;;;;;;;23.90;1.00;;;;;;10496548;27;84131;-54
2022/07/08 15:45:45;;;;;;;;;;;23.90;1.00;;;;;;10496363;27;84709;-52
2022/07/08 15:50:46;;;;;;;;;;;23.70;99.90;;;;;;10496449;27;84631;-49
2022/07/08 15:55:47;;;;;;;;;;;23.70;1.00;;;;;;10495999;27;85051;-50
2022/07/08 16:00:48;;;;;;;;;;;23.70;1.00;;;;;;10477693;27;84889;-49
2022/07/08 16:05:48;;;;;;;;;;;23.70;1.00;;;;;;10495448;27;84004;-53
2022/07/08 16:10:49;;;;;;;;;;;23.90;1.00;;;;;;10477493;27;85878;-44
2022/07/08 16:15:49;;;;;;;;;;;23.80;99.90;;;;;;10497073;27;84701;-50
2022/07/08 16:20:52;;;;;;;;;;;23.80;1.00;;;;;;10494574;27;105880;-49
2022/07/08 16:25:53;;;;;;;;;;;23.90;1.00;;;;;;10494117;27;86587;-49
2022/07/08 16:30:53;;;;;;;;;;;24.00;1.00;;;;;;10495277;27;84877;-55
2022/07/08 16:35:54;;;;;;;;;;;23.90;1.00;;;;;;10495087;27;84119;-50
2022/07/08 16:40:54;;;;;;;;;;;23.90;1.00;;;;;;10475859;27;85598;-49
2022/07/08 16:45:55;;;;;;;;;;;23.70;1.00;;;;;;10501298;22;84987;-45
2022/07/08 16:50:55;;;;;;;;;;;23.70;1.00;;;;;;10451967;28;84925;-43
2022/07/08 16:55:56;;;;;;;;;;;23.70;1.00;;;;;;10451771;27;85124;-47
2022/07/08 17:00:56;;;;;;;;;;;23.70;99.90;;;;;;10452608;28;84277;-50
2022/07/08 17:05:57;;;;;;;;;;;23.60;99.90;;;;;;10451569;28;85207;-47
2022/07/08 17:10:57;;;;;;;;;;;23.60;1.00;;;;;;10451948;28;84872;-48
2022/07/08 17:15:59;;;;;;;;;;;23.50;1.00;;;;;;10451941;28;84146;-44
2022/07/08 17:21:00;;;;;;;;;;;23.30;99.90;;;;;;10451455;27;84947;-47
2022/07/08 17:26:02;;;;;;;;;;;23.30;1.00;;;;;;10451268;28;84811;-47
2022/07/08 17:31:02;;;;;;;;;;;23.30;1.00;;;;;;10450733;27;84293;-48
2022/07/08 17:36:03;;;;;;;;;;;23.30;1.00;;;;;;10450884;27;84120;-51
2022/07/08 17:41:03;;;;;;;;;;;23.30;1.00;;;;;;10459387;27;85020;-46
2022/07/08 17:46:04;;;;;;;;;;;23.30;1.00;;;;;;10457626;27;84217;-48
2022/07/08 17:51:05;;;;;;;;;;;23.40;1.00;;;;;;10458004;27;85191;-54
2022/07/08 17:56:05;;;;;;;;;;;23.30;1.00;;;;;;10459059;27;84918;-48
2022/07/08 18:01:06;;;;;;;;;;;23.30;1.00;;;;;;10459520;28;84768;-46
2022/07/08 18:06:06;;;;;;;;;;;23.30;1.00;;;;;;10458357;27;84870;-47
2022/07/08 18:11:07;;;;;;;;;;;23.50;99.90;;;;;;10457103;27;84884;-46
2022/07/08 18:16:08;;;;;;;;;;;23.50;1.00;;;;;;10456699;28;85352;-46
2022/07/08 18:21:09;;;;;;;;;;;23.30;1.00;;;;;;10455711;27;84229;-45
2022/07/08 18:26:10;;;;;;;;;;;23.20;99.90;;;;;;10456310;27;83960;-47
2022/07/08 18:31:12;;;;;;;;;;;23.00;1.00;;;;;;10456544;28;84995;-48
2022/07/08 18:36:13;;;;;;;;;;;22.80;99.90;;;;;;10457030;28;84268;-46
2022/07/08 18:41:14;;;;;;;;;;;22.80;1.00;;;;;;10456468;27;84821;-48
2022/07/08 18:46:15;;;;;;;;;;;22.70;99.90;;;;;;10455465;27;84943;-47
2022/07/08 18:51:15;;;;;;;;;;;22.60;1.00;;;;;;10437365;28;86218;-47
2022/07/08 18:56:16;;;;;;;;;;;22.50;1.00;;;;;;10456122;27;85052;-47
2022/07/08 19:01:17;;;;;;;;;;;22.50;1.00;;;;;;10456350;28;84210;-43
2022/07/08 19:06:17;;;;;;;;;;;22.50;1.00;;;;;;10455564;27;85005;-49
2022/07/08 19:11:18;;;;;;;;;;;22.40;1.00;;;;;;10454395;28;84941;-47
2022/07/08 19:16:18;;;;;;;;;;;22.30;1.00;;;;;;10455351;27;85313;-48
2022/07/08 19:21:19;;;;;;;;;;;22.20;99.90;;;;;;10455136;28;84892;-48
2022/07/08 19:26:19;;;;;;;;;;;22.20;99.90;;;;;;10455381;28;85414;-50
2022/07/08 19:31:20;;;;;;;;;;;22.10;1.00;;;;;;10455319;28;84835;-49
2022/07/08 19:36:20;;;;;;;;;;;22.00;1.00;;;;;;10454897;27;84089;-48
2022/07/08 19:41:21;;;;;;;;;;;21.90;47.80;;;;;;10453964;28;85386;-46
2022/07/08 19:46:22;;;;;;;;;;;21.80;99.90;;;;;;10454496;27;84919;-52
2022/07/08 19:51:22;;;;;;;;;;;21.80;99.90;;;;;;10455562;28;84126;-43
2022/07/08 19:56:23;;;;;;;;;;;21.70;1.00;;;;;;10454390;27;84641;-46
2022/07/08 20:01:23;;;;;;;;;;;21.60;1.00;;;;;;10468625;27;85115;-46
2022/07/08 20:06:24;;;;;;;;;;;21.50;1.00;;;;;;10453849;28;84290;-47
2022/07/08 20:11:24;;;;;;;;;;;21.40;1.00;;;;;;10454027;28;84138;-48
2022/07/08 20:16:25;;;;;;;;;;;21.30;1.00;;;;;;10453970;27;84296;-47
2022/07/08 20:21:25;;;;;;;;;;;21.20;7.90;;;;;;10453859;28;84860;-54
2022/07/08 20:26:26;;;;;;;;;;;21.10;99.90;;;;;;10453565;27;84159;-44
2022/07/08 20:31:28;;;;;;;;;;;20.90;99.90;;;;;;10468906;27;84185;-47
2022/07/08 20:36:28;;;;;;;;;;;20.90;99.90;;;;;;10452832;28;84132;-46
2022/07/08 20:46:55;;;;;;;;;;;20.70;99.90;;;;;;10440949;27;84889;-46
2022/07/08 20:51:56;;;;;;;;;;;20.60;1.00;;;;;;10443468;28;85988;-47
2022/07/08 20:56:56;;;;;;;;;;;20.50;1.00;;;;;;10449055;28;86134;-48
2022/07/08 21:01:57;;;;;;;;;;;20.40;1.00;;;;;;10448540;28;84103;-48
2022/07/08 21:06:58;;;;;;;;;;;20.30;1.00;;;;;;10449593;27;84250;-46
2022/07/08 21:11:58;;;;;;;;;;;20.20;1.00;;;;;;10454370;27;84583;-49
2022/07/08 21:16:59;;;;;;;;;;;20.10;1.00;;;;;;10459933;28;83944;-51
2022/07/08 21:21:59;;;;;;;;;;;20.10;1.00;;;;;;10462512;28;84479;-47
2022/07/08 21:27:00;;;;;;;;;;;20.00;1.00;;;;;;10462959;27;84158;-46
2022/07/08 21:32:01;;;;;;;;;;;20.00;1.00;;;;;;10463187;28;84965;-47
2022/07/08 21:37:02;;;;;;;;;;;19.90;1.00;;;;;;10456952;27;84270;-44
2022/07/08 21:42:03;;;;;;;;;;;19.80;1.00;;;;;;10462699;28;84781;-49
2022/07/08 21:47:03;;;;;;;;;;;19.70;1.00;;;;;;10463310;27;84117;-48
2022/07/08 21:52:04;;;;;;;;;;;19.70;1.00;;;;;;10464340;28;84111;-47
2022/07/08 21:57:05;;;;;;;;;;;19.60;1.00;;;;;;10463268;27;86184;-48
2022/07/08 22:02:06;;;;;;;;;;;19.50;1.00;;;;;;10461959;28;84329;-47
2022/07/08 22:07:07;;;;;;;;;;;19.40;1.00;;;;;;10463545;27;84829;-47
2022/07/08 22:12:08;;;;;;;;;;;19.40;1.00;;;;;;10462520;27;84954;-46
2022/07/08 22:17:08;;;;;;;;;;;19.30;1.00;;;;;;10463358;27;85087;-46
2022/07/08 22:22:09;;;;;;;;;;;19.20;1.00;;;;;;10459837;27;86030;-46
2022/07/08 22:27:10;;;;;;;;;;;19.20;1.00;;;;;;10455511;27;84936;-48
2022/07/08 22:32:10;;;;;;;;;;;19.10;1.00;;;;;;10456507;27;84112;-48
2022/07/08 22:37:11;;;;;;;;;;;19.10;1.00;;;;;;10455711;27;84086;-46
2022/07/08 22:42:11;;;;;;;;;;;19.00;1.00;;;;;;10456187;28;84951;-47
2022/07/08 22:47:12;;;;;;;;;;;19.00;1.00;;;;;;10447650;22;84653;-47
2022/07/08 22:52:12;;;;;;;;;;;18.90;1.00;;;;;;10386812;28;84170;-52
2022/07/08 22:57:13;;;;;;;;;;;18.90;1.00;;;;;;10414401;28;84077;-50
2022/07/08 23:02:13;;;;;;;;;;;18.80;1.00;;;;;;10413515;28;84883;-52
2022/07/08 23:07:14;;;;;;;;;;;18.80;1.00;;;;;;10412267;28;84190;-43
2022/07/08 23:12:14;;;;;;;;;;;18.80;1.00;;;;;;10412710;28;84174;-48
2022/07/08 23:17:15;;;;;;;;;;;18.70;1.00;;;;;;10412548;28;84869;-52
2022/07/08 23:22:15;;;;;;;;;;;18.60;1.00;;;;;;10412658;28;84137;-48
2022/07/08 23:27:16;;;;;;;;;;;18.60;1.00;;;;;;10393791;28;85945;-48
2022/07/08 23:32:17;;;;;;;;;;;18.60;1.00;;;;;;10412409;28;84132;-48
2022/07/08 23:37:17;;;;;;;;;;;18.60;1.00;;;;;;10410819;28;85241;-47
2022/07/08 23:42:18;;;;;;;;;;;18.60;1.00;;;;;;10411626;28;84143;-52
2022/07/08 23:47:19;;;;;;;;;;;18.60;1.00;;;;;;10411514;28;85067;-48
2022/07/08 23:52:20;;;;;;;;;;;18.50;1.00;;;;;;10411224;28;84683;-48
2022/07/08 23:57:20;;;;;;;;;;;18.60;1.80;;;;;;10411571;28;84087;-48
